sensor_id;sensor_type;location;lat;lon;timestamp;P1;durP1;ratioP1;P2;durP2;ratioP2
52158;SDS011;38145;53.182;6.284;2023-04-24T00:01:22;9.15;;;5.95;;
52158;SDS011;38145;53.182;6.284;2023-04-24T00:03:47;6.38;;;5.30;;
52158;SDS011;38145;53.182;6.284;2023-04-24T00:06:13;6.25;;;5.65;;
52158;SDS011;38145;53.182;6.284;2023-04-24T00:08:42;9.77;;;6.10;;
52158;SDS011;38145;53.182;6.284;2023-04-24T00:11:08;6.63;;;5.95;;
52158;SDS011;38145;53.182;6.284;2023-04-24T00:13:35;7.07;;;6.32;;
52158;SDS011;38145;53.182;6.284;2023-04-24T00:16:01;6.93;;;6.30;;
52158;SDS011;38145;53.182;6.284;2023-04-24T00:18:26;7.88;;;7.07;;
52158;SDS011;38145;53.182;6.284;2023-04-24T00:20:52;7.40;;;6.68;;
52158;SDS011;38145;53.182;6.284;2023-04-24T00:23:18;7.38;;;6.45;;
52158;SDS011;38145;53.182;6.284;2023-04-24T00:25:44;7.43;;;6.00;;
52158;SDS011;38145;53.182;6.284;2023-04-24T00:28:10;7.22;;;5.78;;
52158;SDS011;38145;53.182;6.284;2023-04-24T00:30:36;7.47;;;4.80;;
52158;SDS011;38145;53.182;6.284;2023-04-24T00:33:02;5.53;;;4.10;;
52158;SDS011;38145;53.182;6.284;2023-04-24T00:35:28;5.80;;;4.97;;
52158;SDS011;38145;53.182;6.284;2023-04-24T00:37:54;5.95;;;5.15;;
52158;SDS011;38145;53.182;6.284;2023-04-24T00:40:20;6.10;;;5.45;;
52158;SDS011;38145;53.182;6.284;2023-04-24T00:42:46;5.65;;;4.70;;
52158;SDS011;38145;53.182;6.284;2023-04-24T00:45:12;5.30;;;4.60;;
52158;SDS011;38145;53.182;6.284;2023-04-24T00:47:38;4.75;;;3.85;;
52158;SDS011;38145;53.182;6.284;2023-04-24T00:50:05;5.00;;;4.05;;
52158;SDS011;38145;53.182;6.284;2023-04-24T00:52:32;5.07;;;4.00;;
52158;SDS011;38145;53.182;6.284;2023-04-24T00:54:58;3.75;;;3.40;;
52158;SDS011;38145;53.182;6.284;2023-04-24T00:57:24;6.43;;;3.60;;
52158;SDS011;38145;53.182;6.284;2023-04-24T00:59:51;4.68;;;4.15;;
52158;SDS011;38145;53.182;6.284;2023-04-24T01:02:18;3.42;;;2.90;;
52158;SDS011;38145;53.182;6.284;2023-04-24T01:04:45;6.38;;;3.30;;
52158;SDS011;38145;53.182;6.284;2023-04-24T01:07:11;3.83;;;3.17;;
52158;SDS011;38145;53.182;6.284;2023-04-24T01:09:38;2.83;;;2.63;;
52158;SDS011;38145;53.182;6.284;2023-04-24T01:12:07;3.40;;;3.10;;
52158;SDS011;38145;53.182;6.284;2023-04-24T01:14:33;3.17;;;2.90;;
52158;SDS011;38145;53.182;6.284;2023-04-24T01:16:59;6.25;;;3.03;;
52158;SDS011;38145;53.182;6.284;2023-04-24T01:19:25;3.15;;;2.85;;
52158;SDS011;38145;53.182;6.284;2023-04-24T01:21:52;3.30;;;3.00;;
52158;SDS011;38145;53.182;6.284;2023-04-24T01:24:19;4.45;;;2.50;;
52158;SDS011;38145;53.182;6.284;2023-04-24T01:26:46;2.78;;;2.58;;
52158;SDS011;38145;53.182;6.284;2023-04-24T01:29:11;2.60;;;2.40;;
52158;SDS011;38145;53.182;6.284;2023-04-24T01:31:38;2.40;;;2.20;;
52158;SDS011;38145;53.182;6.284;2023-04-24T01:34:05;3.50;;;2.25;;
52158;SDS011;38145;53.182;6.284;2023-04-24T01:36:31;3.30;;;2.30;;
52158;SDS011;38145;53.182;6.284;2023-04-24T01:39:00;2.75;;;2.40;;
52158;SDS011;38145;53.182;6.284;2023-04-24T01:41:26;2.80;;;2.58;;
52158;SDS011;38145;53.182;6.284;2023-04-24T01:43:52;2.92;;;2.70;;
52158;SDS011;38145;53.182;6.284;2023-04-24T01:46:20;2.90;;;2.60;;
52158;SDS011;38145;53.182;6.284;2023-04-24T01:48:46;2.70;;;2.35;;
52158;SDS011;38145;53.182;6.284;2023-04-24T01:51:12;3.05;;;2.40;;
52158;SDS011;38145;53.182;6.284;2023-04-24T01:53:38;3.92;;;2.55;;
52158;SDS011;38145;53.182;6.284;2023-04-24T01:56:04;2.60;;;2.40;;
52158;SDS011;38145;53.182;6.284;2023-04-24T01:58:31;3.85;;;2.70;;
52158;SDS011;38145;53.182;6.284;2023-04-24T02:00:57;3.28;;;2.75;;
52158;SDS011;38145;53.182;6.284;2023-04-24T02:03:24;3.35;;;2.63;;
52158;SDS011;38145;53.182;6.284;2023-04-24T02:05:51;3.05;;;2.83;;
52158;SDS011;38145;53.182;6.284;2023-04-24T02:08:17;3.47;;;3.17;;
52158;SDS011;38145;53.182;6.284;2023-04-24T02:10:43;3.50;;;3.20;;
52158;SDS011;38145;53.182;6.284;2023-04-24T02:13:09;3.50;;;3.20;;
52158;SDS011;38145;53.182;6.284;2023-04-24T02:15:35;5.22;;;3.75;;
52158;SDS011;38145;53.182;6.284;2023-04-24T02:18:01;4.47;;;4.07;;
52158;SDS011;38145;53.182;6.284;2023-04-24T02:20:27;6.70;;;4.03;;
52158;SDS011;38145;53.182;6.284;2023-04-24T02:22:53;6.13;;;3.60;;
52158;SDS011;38145;53.182;6.284;2023-04-24T02:25:18;4.55;;;4.15;;
52158;SDS011;38145;53.182;6.284;2023-04-24T02:27:44;4.72;;;3.90;;
52158;SDS011;38145;53.182;6.284;2023-04-24T02:30:10;4.35;;;3.95;;
52158;SDS011;38145;53.182;6.284;2023-04-24T02:32:36;5.57;;;4.97;;
52158;SDS011;38145;53.182;6.284;2023-04-24T02:35:04;5.30;;;4.78;;
52158;SDS011;38145;53.182;6.284;2023-04-24T02:37:31;5.47;;;4.97;;
52158;SDS011;38145;53.182;6.284;2023-04-24T02:39:57;5.97;;;5.38;;
52158;SDS011;38145;53.182;6.284;2023-04-24T02:42:23;7.35;;;5.70;;
52158;SDS011;38145;53.182;6.284;2023-04-24T02:44:49;6.03;;;5.43;;
52158;SDS011;38145;53.182;6.284;2023-04-24T02:47:16;7.35;;;6.60;;
52158;SDS011;38145;53.182;6.284;2023-04-24T02:49:42;7.20;;;6.25;;
52158;SDS011;38145;53.182;6.284;2023-04-24T02:52:08;6.05;;;5.55;;
52158;SDS011;38145;53.182;6.284;2023-04-24T02:54:34;7.22;;;6.63;;
52158;SDS011;38145;53.182;6.284;2023-04-24T02:57:00;6.93;;;6.32;;
52158;SDS011;38145;53.182;6.284;2023-04-24T02:59:26;7.20;;;6.60;;
52158;SDS011;38145;53.182;6.284;2023-04-24T03:01:55;8.70;;;7.47;;
52158;SDS011;38145;53.182;6.284;2023-04-24T03:04:21;8.57;;;7.78;;
52158;SDS011;38145;53.182;6.284;2023-04-24T03:06:47;8.68;;;7.88;;
52158;SDS011;38145;53.182;6.284;2023-04-24T03:09:13;9.20;;;8.35;;
52158;SDS011;38145;53.182;6.284;2023-04-24T03:11:39;9.27;;;8.00;;
52158;SDS011;38145;53.182;6.284;2023-04-24T03:14:05;9.18;;;8.18;;
52158;SDS011;38145;53.182;6.284;2023-04-24T03:16:31;9.13;;;8.30;;
52158;SDS011;38145;53.182;6.284;2023-04-24T03:18:58;9.90;;;8.90;;
52158;SDS011;38145;53.182;6.284;2023-04-24T03:21:24;10.10;;;9.10;;
52158;SDS011;38145;53.182;6.284;2023-04-24T03:23:49;11.20;;;10.05;;
52158;SDS011;38145;53.182;6.284;2023-04-24T03:26:15;10.90;;;9.80;;
52158;SDS011;38145;53.182;6.284;2023-04-24T03:28:41;11.52;;;10.38;;
52158;SDS011;38145;53.182;6.284;2023-04-24T03:31:07;11.35;;;10.25;;
52158;SDS011;38145;53.182;6.284;2023-04-24T03:33:33;11.80;;;10.60;;
52158;SDS011;38145;53.182;6.284;2023-04-24T03:35:59;11.85;;;10.75;;
52158;SDS011;38145;53.182;6.284;2023-04-24T03:38:24;12.57;;;11.38;;
52158;SDS011;38145;53.182;6.284;2023-04-24T03:40:50;13.00;;;11.70;;
52158;SDS011;38145;53.182;6.284;2023-04-24T03:43:16;13.50;;;12.13;;
52158;SDS011;38145;53.182;6.284;2023-04-24T03:45:42;13.48;;;12.18;;
52158;SDS011;38145;53.182;6.284;2023-04-24T03:48:08;13.88;;;12.48;;
52158;SDS011;38145;53.182;6.284;2023-04-24T03:50:34;14.32;;;12.85;;
52158;SDS011;38145;53.182;6.284;2023-04-24T03:53:00;14.50;;;13.02;;
52158;SDS011;38145;53.182;6.284;2023-04-24T03:55:25;13.98;;;12.57;;
52158;SDS011;38145;53.182;6.284;2023-04-24T03:57:51;15.90;;;14.30;;
52158;SDS011;38145;53.182;6.284;2023-04-24T04:00:17;15.02;;;13.52;;
52158;SDS011;38145;53.182;6.284;2023-04-24T04:02:43;16.73;;;14.02;;
52158;SDS011;38145;53.182;6.284;2023-04-24T04:05:09;17.20;;;14.85;;
52158;SDS011;38145;53.182;6.284;2023-04-24T04:07:35;15.98;;;14.27;;
52158;SDS011;38145;53.182;6.284;2023-04-24T04:10:01;17.27;;;14.43;;
52158;SDS011;38145;53.182;6.284;2023-04-24T04:12:27;15.75;;;14.07;;
52158;SDS011;38145;53.182;6.284;2023-04-24T04:14:53;10.80;;;9.70;;
52158;SDS011;38145;53.182;6.284;2023-04-24T04:17:19;10.30;;;9.25;;
52158;SDS011;38145;53.182;6.284;2023-04-24T04:19:44;9.88;;;7.97;;
52158;SDS011;38145;53.182;6.284;2023-04-24T04:22:10;9.05;;;7.32;;
52158;SDS011;38145;53.182;6.284;2023-04-24T04:24:36;9.43;;;6.72;;
52158;SDS011;38145;53.182;6.284;2023-04-24T04:27:03;7.85;;;6.38;;
52158;SDS011;38145;53.182;6.284;2023-04-24T04:29:30;7.00;;;6.00;;
52158;SDS011;38145;53.182;6.284;2023-04-24T04:31:58;5.65;;;5.15;;
52158;SDS011;38145;53.182;6.284;2023-04-24T04:34:24;6.07;;;5.47;;
52158;SDS011;38145;53.182;6.284;2023-04-24T04:36:49;6.95;;;4.75;;
52158;SDS011;38145;53.182;6.284;2023-04-24T04:39:15;5.95;;;3.75;;
52158;SDS011;38145;53.182;6.284;2023-04-24T04:44:11;3.28;;;2.55;;
52158;SDS011;38145;53.182;6.284;2023-04-24T04:46:37;2.50;;;2.30;;
52158;SDS011;38145;53.182;6.284;2023-04-24T04:49:03;2.65;;;2.20;;
52158;SDS011;38145;53.182;6.284;2023-04-24T04:51:29;5.38;;;2.20;;
52158;SDS011;38145;53.182;6.284;2023-04-24T04:53:56;3.90;;;2.42;;
52158;SDS011;38145;53.182;6.284;2023-04-24T04:56:22;2.90;;;2.60;;
52158;SDS011;38145;53.182;6.284;2023-04-24T04:58:47;4.60;;;2.42;;
52158;SDS011;38145;53.182;6.284;2023-04-24T05:01:13;3.08;;;2.78;;
52158;SDS011;38145;53.182;6.284;2023-04-24T05:03:39;3.58;;;2.75;;
52158;SDS011;38145;53.182;6.284;2023-04-24T05:06:05;4.45;;;2.83;;
52158;SDS011;38145;53.182;6.284;2023-04-24T05:08:31;3.13;;;2.60;;
52158;SDS011;38145;53.182;6.284;2023-04-24T05:10:57;3.80;;;3.00;;
52158;SDS011;38145;53.182;6.284;2023-04-24T05:13:23;4.30;;;3.45;;
52158;SDS011;38145;53.182;6.284;2023-04-24T05:15:49;4.03;;;3.40;;
52158;SDS011;38145;53.182;6.284;2023-04-24T05:18:15;4.22;;;3.75;;
52158;SDS011;38145;53.182;6.284;2023-04-24T05:20:41;6.60;;;3.97;;
52158;SDS011;38145;53.182;6.284;2023-04-24T05:23:09;5.93;;;3.90;;
52158;SDS011;38145;53.182;6.284;2023-04-24T05:25:35;4.32;;;3.63;;
52158;SDS011;38145;53.182;6.284;2023-04-24T05:28:01;5.78;;;3.70;;
52158;SDS011;38145;53.182;6.284;2023-04-24T05:30:28;4.20;;;3.50;;
52158;SDS011;38145;53.182;6.284;2023-04-24T05:32:54;5.18;;;4.00;;
52158;SDS011;38145;53.182;6.284;2023-04-24T05:35:20;5.30;;;3.42;;
52158;SDS011;38145;53.182;6.284;2023-04-24T05:37:46;4.75;;;3.75;;
52158;SDS011;38145;53.182;6.284;2023-04-24T05:40:12;5.15;;;4.47;;
52158;SDS011;38145;53.182;6.284;2023-04-24T05:42:38;7.80;;;4.30;;
52158;SDS011;38145;53.182;6.284;2023-04-24T05:45:04;5.78;;;4.70;;
52158;SDS011;38145;53.182;6.284;2023-04-24T05:47:30;7.43;;;5.10;;
52158;SDS011;38145;53.182;6.284;2023-04-24T05:49:56;8.32;;;5.57;;
52158;SDS011;38145;53.182;6.284;2023-04-24T05:52:22;10.63;;;5.70;;
52158;SDS011;38145;53.182;6.284;2023-04-24T05:54:48;10.68;;;5.63;;
52158;SDS011;38145;53.182;6.284;2023-04-24T05:57:14;8.30;;;6.13;;
52158;SDS011;38145;53.182;6.284;2023-04-24T05:59:40;14.77;;;5.90;;
52158;SDS011;38145;53.182;6.284;2023-04-24T06:02:06;13.80;;;5.95;;
52158;SDS011;38145;53.182;6.284;2023-04-24T06:04:33;12.48;;;6.38;;
52158;SDS011;38145;53.182;6.284;2023-04-24T06:06:59;8.55;;;6.05;;
52158;SDS011;38145;53.182;6.284;2023-04-24T06:09:25;7.93;;;6.20;;
52158;SDS011;38145;53.182;6.284;2023-04-24T06:11:51;7.97;;;6.28;;
52158;SDS011;38145;53.182;6.284;2023-04-24T06:14:18;11.63;;;6.83;;
52158;SDS011;38145;53.182;6.284;2023-04-24T06:16:45;16.08;;;6.40;;
52158;SDS011;38145;53.182;6.284;2023-04-24T06:19:11;10.65;;;5.97;;
52158;SDS011;38145;53.182;6.284;2023-04-24T06:21:36;7.47;;;5.65;;
52158;SDS011;38145;53.182;6.284;2023-04-24T06:24:02;6.18;;;5.57;;
52158;SDS011;38145;53.182;6.284;2023-04-24T06:26:29;12.27;;;6.18;;
52158;SDS011;38145;53.182;6.284;2023-04-24T06:28:55;10.15;;;5.40;;
52158;SDS011;38145;53.182;6.284;2023-04-24T06:31:23;8.85;;;5.00;;
52158;SDS011;38145;53.182;6.284;2023-04-24T06:33:49;12.65;;;10.65;;
52158;SDS011;38145;53.182;6.284;2023-04-24T06:36:15;8.32;;;5.38;;
52158;SDS011;38145;53.182;6.284;2023-04-24T06:38:41;6.82;;;4.43;;
52158;SDS011;38145;53.182;6.284;2023-04-24T06:41:07;12.05;;;5.40;;
52158;SDS011;38145;53.182;6.284;2023-04-24T06:43:34;6.50;;;3.77;;
52158;SDS011;38145;53.182;6.284;2023-04-24T06:46:00;4.88;;;3.45;;
52158;SDS011;38145;53.182;6.284;2023-04-24T06:48:28;9.95;;;3.58;;
52158;SDS011;38145;53.182;6.284;2023-04-24T06:50:54;6.68;;;3.42;;
52158;SDS011;38145;53.182;6.284;2023-04-24T06:53:20;5.97;;;3.28;;
52158;SDS011;38145;53.182;6.284;2023-04-24T06:55:46;4.78;;;3.35;;
52158;SDS011;38145;53.182;6.284;2023-04-24T06:58:12;7.20;;;3.03;;
52158;SDS011;38145;53.182;6.284;2023-04-24T07:00:38;7.60;;;3.45;;
52158;SDS011;38145;53.182;6.284;2023-04-24T07:03:04;6.60;;;3.15;;
52158;SDS011;38145;53.182;6.284;2023-04-24T07:05:31;7.07;;;3.00;;
52158;SDS011;38145;53.182;6.284;2023-04-24T07:07:58;7.00;;;3.20;;
52158;SDS011;38145;53.182;6.284;2023-04-24T07:10:25;7.68;;;2.97;;
52158;SDS011;38145;53.182;6.284;2023-04-24T07:15:19;6.45;;;2.90;;
52158;SDS011;38145;53.182;6.284;2023-04-24T07:17:45;6.70;;;2.80;;
52158;SDS011;38145;53.182;6.284;2023-04-24T07:20:11;5.13;;;2.95;;
52158;SDS011;38145;53.182;6.284;2023-04-24T07:22:39;10.05;;;3.17;;
52158;SDS011;38145;53.182;6.284;2023-04-24T07:25:05;4.63;;;3.13;;
52158;SDS011;38145;53.182;6.284;2023-04-24T07:27:32;7.63;;;4.50;;
52158;SDS011;38145;53.182;6.284;2023-04-24T07:29:59;9.13;;;5.88;;
52158;SDS011;38145;53.182;6.284;2023-04-24T07:32:25;20.38;;;8.52;;
52158;SDS011;38145;53.182;6.284;2023-04-24T07:34:50;16.15;;;9.45;;
52158;SDS011;38145;53.182;6.284;2023-04-24T07:37:16;20.00;;;11.57;;
52158;SDS011;38145;53.182;6.284;2023-04-24T07:39:42;20.48;;;11.73;;
52158;SDS011;38145;53.182;6.284;2023-04-24T07:42:08;26.15;;;15.30;;
52158;SDS011;38145;53.182;6.284;2023-04-24T07:44:34;23.92;;;15.68;;
52158;SDS011;38145;53.182;6.284;2023-04-24T07:47:01;27.17;;;16.08;;
52158;SDS011;38145;53.182;6.284;2023-04-24T07:49:26;23.30;;;14.45;;
52158;SDS011;38145;53.182;6.284;2023-04-24T07:51:53;21.15;;;15.07;;
52158;SDS011;38145;53.182;6.284;2023-04-24T07:54:19;27.33;;;16.27;;
52158;SDS011;38145;53.182;6.284;2023-04-24T07:56:45;24.02;;;15.50;;
52158;SDS011;38145;53.182;6.284;2023-04-24T07:59:11;23.10;;;16.35;;
52158;SDS011;38145;53.182;6.284;2023-04-24T08:01:36;27.13;;;17.58;;
52158;SDS011;38145;53.182;6.284;2023-04-24T08:04:03;22.48;;;16.55;;
52158;SDS011;38145;53.182;6.284;2023-04-24T08:06:29;26.65;;;17.70;;
52158;SDS011;38145;53.182;6.284;2023-04-24T08:08:55;22.17;;;15.60;;
52158;SDS011;38145;53.182;6.284;2023-04-24T08:11:22;23.38;;;15.48;;
52158;SDS011;38145;53.182;6.284;2023-04-24T08:13:48;26.10;;;15.30;;
52158;SDS011;38145;53.182;6.284;2023-04-24T08:16:13;26.40;;;16.67;;
52158;SDS011;38145;53.182;6.284;2023-04-24T08:18:39;26.23;;;17.80;;
52158;SDS011;38145;53.182;6.284;2023-04-24T08:21:05;27.55;;;16.77;;
52158;SDS011;38145;53.182;6.284;2023-04-24T08:23:31;24.25;;;17.20;;
52158;SDS011;38145;53.182;6.284;2023-04-24T08:25:57;24.50;;;16.27;;
52158;SDS011;38145;53.182;6.284;2023-04-24T08:28:24;29.35;;;17.67;;
52158;SDS011;38145;53.182;6.284;2023-04-24T08:30:50;24.48;;;16.35;;
52158;SDS011;38145;53.182;6.284;2023-04-24T08:33:20;31.40;;;16.23;;
52158;SDS011;38145;53.182;6.284;2023-04-24T08:35:48;25.08;;;16.65;;
52158;SDS011;38145;53.182;6.284;2023-04-24T08:38:15;24.42;;;16.80;;
52158;SDS011;38145;53.182;6.284;2023-04-24T08:40:42;22.73;;;16.55;;
52158;SDS011;38145;53.182;6.284;2023-04-24T08:43:08;20.20;;;16.33;;
52158;SDS011;38145;53.182;6.284;2023-04-24T08:45:36;23.60;;;15.77;;
52158;SDS011;38145;53.182;6.284;2023-04-24T08:48:04;26.23;;;16.90;;
52158;SDS011;38145;53.182;6.284;2023-04-24T08:50:31;21.70;;;14.48;;
52158;SDS011;38145;53.182;6.284;2023-04-24T08:52:57;17.73;;;14.45;;
52158;SDS011;38145;53.182;6.284;2023-04-24T08:55:24;15.90;;;12.50;;
52158;SDS011;38145;53.182;6.284;2023-04-24T08:57:52;16.42;;;11.55;;
52158;SDS011;38145;53.182;6.284;2023-04-24T09:00:20;19.77;;;11.60;;
52158;SDS011;38145;53.182;6.284;2023-04-24T09:02:49;15.05;;;11.30;;
52158;SDS011;38145;53.182;6.284;2023-04-24T09:05:16;14.50;;;11.30;;
52158;SDS011;38145;53.182;6.284;2023-04-24T09:07:44;19.92;;;10.32;;
52158;SDS011;38145;53.182;6.284;2023-04-24T09:10:14;12.00;;;9.23;;
52158;SDS011;38145;53.182;6.284;2023-04-24T09:12:41;12.32;;;9.48;;
52158;SDS011;38145;53.182;6.284;2023-04-24T09:15:08;16.85;;;9.50;;
52158;SDS011;38145;53.182;6.284;2023-04-24T09:17:34;19.88;;;10.43;;
52158;SDS011;38145;53.182;6.284;2023-04-24T09:20:01;14.88;;;9.90;;
52158;SDS011;38145;53.182;6.284;2023-04-24T09:22:29;17.10;;;7.82;;
52158;SDS011;38145;53.182;6.284;2023-04-24T09:24:59;16.85;;;8.15;;
52158;SDS011;38145;53.182;6.284;2023-04-24T09:27:29;13.68;;;7.75;;
52158;SDS011;38145;53.182;6.284;2023-04-24T09:29:56;16.90;;;8.18;;
52158;SDS011;38145;53.182;6.284;2023-04-24T09:32:22;14.63;;;8.57;;
52158;SDS011;38145;53.182;6.284;2023-04-24T09:35:06;19.30;;;8.43;;
52158;SDS011;38145;53.182;6.284;2023-04-24T09:37:39;20.25;;;8.40;;
52158;SDS011;38145;53.182;6.284;2023-04-24T09:40:14;19.67;;;10.40;;
52158;SDS011;38145;53.182;6.284;2023-04-24T09:42:46;15.10;;;6.80;;
52158;SDS011;38145;53.182;6.284;2023-04-24T09:45:18;15.23;;;6.68;;
52158;SDS011;38145;53.182;6.284;2023-04-24T09:47:45;12.45;;;6.18;;
52158;SDS011;38145;53.182;6.284;2023-04-24T09:50:12;16.25;;;7.00;;
52158;SDS011;38145;53.182;6.284;2023-04-24T09:55:11;13.35;;;4.90;;
52158;SDS011;38145;53.182;6.284;2023-04-24T09:57:47;9.85;;;4.50;;
52158;SDS011;38145;53.182;6.284;2023-04-24T10:00:21;11.93;;;5.68;;
52158;SDS011;38145;53.182;6.284;2023-04-24T10:02:53;15.55;;;5.45;;
52158;SDS011;38145;53.182;6.284;2023-04-24T10:05:23;14.32;;;5.05;;
52158;SDS011;38145;53.182;6.284;2023-04-24T10:07:50;9.55;;;5.43;;
52158;SDS011;38145;53.182;6.284;2023-04-24T10:10:16;13.13;;;4.47;;
52158;SDS011;38145;53.182;6.284;2023-04-24T10:12:42;9.63;;;3.90;;
52158;SDS011;38145;53.182;6.284;2023-04-24T10:15:09;13.63;;;3.60;;
52158;SDS011;38145;53.182;6.284;2023-04-24T10:17:38;13.52;;;3.47;;
52158;SDS011;38145;53.182;6.284;2023-04-24T10:20:05;10.02;;;4.15;;
52158;SDS011;38145;53.182;6.284;2023-04-24T10:22:32;12.23;;;3.95;;
52158;SDS011;38145;53.182;6.284;2023-04-24T10:24:58;11.55;;;3.40;;
52158;SDS011;38145;53.182;6.284;2023-04-24T10:27:24;11.48;;;4.15;;
52158;SDS011;38145;53.182;6.284;2023-04-24T10:32:18;6.68;;;3.65;;
52158;SDS011;38145;53.182;6.284;2023-04-24T10:34:44;8.23;;;3.25;;
52158;SDS011;38145;53.182;6.284;2023-04-24T10:37:10;11.10;;;3.85;;
52158;SDS011;38145;53.182;6.284;2023-04-24T10:39:36;9.18;;;3.33;;
52158;SDS011;38145;53.182;6.284;2023-04-24T10:42:13;10.82;;;4.00;;
52158;SDS011;38145;53.182;6.284;2023-04-24T10:44:40;14.30;;;4.25;;
52158;SDS011;38145;53.182;6.284;2023-04-24T10:47:07;18.10;;;3.38;;
52158;SDS011;38145;53.182;6.284;2023-04-24T10:49:39;10.38;;;3.13;;
52158;SDS011;38145;53.182;6.284;2023-04-24T10:52:05;8.85;;;3.17;;
52158;SDS011;38145;53.182;6.284;2023-04-24T10:54:36;9.10;;;2.75;;
52158;SDS011;38145;53.182;6.284;2023-04-24T10:59:43;11.25;;;3.33;;
52158;SDS011;38145;53.182;6.284;2023-04-24T11:02:09;5.78;;;2.15;;
52158;SDS011;38145;53.182;6.284;2023-04-24T11:04:35;8.60;;;2.55;;
52158;SDS011;38145;53.182;6.284;2023-04-24T11:07:02;9.32;;;2.72;;
52158;SDS011;38145;53.182;6.284;2023-04-24T11:09:31;10.45;;;2.55;;
52158;SDS011;38145;53.182;6.284;2023-04-24T11:17:29;7.97;;;2.58;;
52158;SDS011;38145;53.182;6.284;2023-04-24T11:20:03;7.87;;;2.27;;
52158;SDS011;38145;53.182;6.284;2023-04-24T11:22:32;10.98;;;1.83;;
52158;SDS011;38145;53.182;6.284;2023-04-24T11:25:00;4.60;;;2.10;;
52158;SDS011;38145;53.182;6.284;2023-04-24T11:32:27;9.48;;;2.90;;
52158;SDS011;38145;53.182;6.284;2023-04-24T11:34:54;8.07;;;2.45;;
52158;SDS011;38145;53.182;6.284;2023-04-24T11:37:22;8.75;;;2.15;;
52158;SDS011;38145;53.182;6.284;2023-04-24T11:39:50;6.05;;;1.88;;
52158;SDS011;38145;53.182;6.284;2023-04-24T11:42:18;10.70;;;2.42;;
52158;SDS011;38145;53.182;6.284;2023-04-24T11:44:45;5.82;;;1.70;;
52158;SDS011;38145;53.182;6.284;2023-04-24T11:47:12;5.45;;;1.85;;
52158;SDS011;38145;53.182;6.284;2023-04-24T11:49:38;4.90;;;1.92;;
52158;SDS011;38145;53.182;6.284;2023-04-24T11:52:05;6.03;;;2.17;;
52158;SDS011;38145;53.182;6.284;2023-04-24T11:54:31;5.82;;;2.63;;
52158;SDS011;38145;53.182;6.284;2023-04-24T11:56:57;6.65;;;1.95;;
52158;SDS011;38145;53.182;6.284;2023-04-24T11:59:23;10.13;;;3.03;;
52158;SDS011;38145;53.182;6.284;2023-04-24T12:01:49;5.75;;;2.00;;
52158;SDS011;38145;53.182;6.284;2023-04-24T12:04:16;7.22;;;2.05;;
52158;SDS011;38145;53.182;6.284;2023-04-24T12:06:59;3.85;;;1.60;;
52158;SDS011;38145;53.182;6.284;2023-04-24T12:09:26;3.63;;;1.50;;
52158;SDS011;38145;53.182;6.284;2023-04-24T12:11:54;4.50;;;1.42;;
52158;SDS011;38145;53.182;6.284;2023-04-24T12:14:22;8.88;;;1.50;;
52158;SDS011;38145;53.182;6.284;2023-04-24T12:16:48;7.55;;;2.05;;
52158;SDS011;38145;53.182;6.284;2023-04-24T12:19:20;7.75;;;1.50;;
52158;SDS011;38145;53.182;6.284;2023-04-24T12:21:58;3.95;;;1.23;;
52158;SDS011;38145;53.182;6.284;2023-04-24T12:24:25;5.88;;;1.83;;
52158;SDS011;38145;53.182;6.284;2023-04-24T12:26:51;5.13;;;1.67;;
52158;SDS011;38145;53.182;6.284;2023-04-24T12:29:20;5.25;;;1.42;;
52158;SDS011;38145;53.182;6.284;2023-04-24T12:31:46;7.47;;;1.73;;
52158;SDS011;38145;53.182;6.284;2023-04-24T12:34:18;6.30;;;1.52;;
52158;SDS011;38145;53.182;6.284;2023-04-24T12:36:46;5.30;;;1.10;;
52158;SDS011;38145;53.182;6.284;2023-04-24T12:39:17;8.80;;;1.40;;
52158;SDS011;38145;53.182;6.284;2023-04-24T12:41:55;6.43;;;1.75;;
52158;SDS011;38145;53.182;6.284;2023-04-24T12:44:30;8.38;;;1.67;;
52158;SDS011;38145;53.182;6.284;2023-04-24T12:46:56;7.68;;;1.40;;
52158;SDS011;38145;53.182;6.284;2023-04-24T12:49:23;6.97;;;1.30;;
52158;SDS011;38145;53.182;6.284;2023-04-24T12:51:49;9.68;;;2.05;;
52158;SDS011;38145;53.182;6.284;2023-04-24T12:54:15;7.65;;;1.60;;
52158;SDS011;38145;53.182;6.284;2023-04-24T12:56:41;4.78;;;0.95;;
52158;SDS011;38145;53.182;6.284;2023-04-24T12:59:07;2.15;;;0.70;;
52158;SDS011;38145;53.182;6.284;2023-04-24T13:01:33;4.47;;;1.05;;
52158;SDS011;38145;53.182;6.284;2023-04-24T13:03:59;7.28;;;1.30;;
52158;SDS011;38145;53.182;6.284;2023-04-24T13:06:25;3.50;;;0.70;;
52158;SDS011;38145;53.182;6.284;2023-04-24T13:08:51;4.93;;;1.65;;
52158;SDS011;38145;53.182;6.284;2023-04-24T13:11:17;6.50;;;0.80;;
52158;SDS011;38145;53.182;6.284;2023-04-24T13:13:43;4.00;;;0.52;;
52158;SDS011;38145;53.182;6.284;2023-04-24T13:16:09;2.80;;;0.85;;
52158;SDS011;38145;53.182;6.284;2023-04-24T13:18:35;4.70;;;0.80;;
52158;SDS011;38145;53.182;6.284;2023-04-24T13:21:01;4.78;;;1.00;;
52158;SDS011;38145;53.182;6.284;2023-04-24T13:23:27;2.85;;;0.70;;
52158;SDS011;38145;53.182;6.284;2023-04-24T13:25:53;4.20;;;0.70;;
52158;SDS011;38145;53.182;6.284;2023-04-24T13:28:22;3.47;;;0.77;;
52158;SDS011;38145;53.182;6.284;2023-04-24T13:30:48;2.55;;;0.80;;
52158;SDS011;38145;53.182;6.284;2023-04-24T13:33:14;5.03;;;1.20;;
52158;SDS011;38145;53.182;6.284;2023-04-24T13:35:40;4.10;;;1.05;;
52158;SDS011;38145;53.182;6.284;2023-04-24T13:38:06;3.90;;;1.00;;
52158;SDS011;38145;53.182;6.284;2023-04-24T13:40:32;5.00;;;1.50;;
52158;SDS011;38145;53.182;6.284;2023-04-24T13:42:58;6.65;;;2.03;;
52158;SDS011;38145;53.182;6.284;2023-04-24T13:45:24;4.07;;;1.10;;
52158;SDS011;38145;53.182;6.284;2023-04-24T13:47:50;3.70;;;1.30;;
52158;SDS011;38145;53.182;6.284;2023-04-24T13:50:16;11.43;;;1.92;;
52158;SDS011;38145;53.182;6.284;2023-04-24T13:52:42;9.30;;;1.67;;
52158;SDS011;38145;53.182;6.284;2023-04-24T13:55:08;7.60;;;2.08;;
52158;SDS011;38145;53.182;6.284;2023-04-24T13:57:34;9.68;;;1.75;;
52158;SDS011;38145;53.182;6.284;2023-04-24T14:00:00;8.60;;;2.20;;
52158;SDS011;38145;53.182;6.284;2023-04-24T14:02:28;11.52;;;2.50;;
52158;SDS011;38145;53.182;6.284;2023-04-24T14:04:55;12.13;;;3.47;;
52158;SDS011;38145;53.182;6.284;2023-04-24T14:07:21;11.15;;;2.30;;
52158;SDS011;38145;53.182;6.284;2023-04-24T14:09:46;8.48;;;2.67;;
52158;SDS011;38145;53.182;6.284;2023-04-24T14:12:12;9.68;;;2.67;;
52158;SDS011;38145;53.182;6.284;2023-04-24T14:14:39;6.90;;;1.88;;
52158;SDS011;38145;53.182;6.284;2023-04-24T14:17:05;6.28;;;1.92;;
52158;SDS011;38145;53.182;6.284;2023-04-24T14:19:31;4.97;;;1.98;;
52158;SDS011;38145;53.182;6.284;2023-04-24T14:21:57;6.78;;;2.17;;
52158;SDS011;38145;53.182;6.284;2023-04-24T14:24:23;8.10;;;1.60;;
52158;SDS011;38145;53.182;6.284;2023-04-24T14:26:49;4.05;;;1.63;;
52158;SDS011;38145;53.182;6.284;2023-04-24T14:29:15;8.13;;;2.20;;
52158;SDS011;38145;53.182;6.284;2023-04-24T14:31:42;6.78;;;2.20;;
52158;SDS011;38145;53.182;6.284;2023-04-24T14:34:08;4.68;;;1.73;;
52158;SDS011;38145;53.182;6.284;2023-04-24T14:36:34;6.68;;;2.45;;
52158;SDS011;38145;53.182;6.284;2023-04-24T14:39:00;7.68;;;2.53;;
52158;SDS011;38145;53.182;6.284;2023-04-24T14:41:31;8.10;;;2.67;;
52158;SDS011;38145;53.182;6.284;2023-04-24T14:43:58;9.60;;;2.78;;
52158;SDS011;38145;53.182;6.284;2023-04-24T14:46:24;14.07;;;3.35;;
52158;SDS011;38145;53.182;6.284;2023-04-24T14:48:50;11.45;;;3.17;;
52158;SDS011;38145;53.182;6.284;2023-04-24T14:51:17;11.88;;;3.35;;
52158;SDS011;38145;53.182;6.284;2023-04-24T14:53:43;13.10;;;3.70;;
52158;SDS011;38145;53.182;6.284;2023-04-24T14:56:11;13.43;;;3.70;;
52158;SDS011;38145;53.182;6.284;2023-04-24T14:58:37;11.25;;;3.75;;
52158;SDS011;38145;53.182;6.284;2023-04-24T15:01:03;11.52;;;3.00;;